Time;durP1;ratioP1;P1;durP2;ratioP2;P2;SDS_P1;SDS_P2;PMS_P1;PMS_P2;Temp;Humidity;BMP_temperature;BMP_pressure;BME280_temperature;BME280_humidity;BME280_pressure;Samples;Min_cycle;Max_cycle;Signal;HPM_P1;HPM_P2
2022/04/13 00:00:30;;;;;;;;;4.00;4.00;;;;;;;;5030318;28;45687;-61
2022/04/13 00:02:56;;;;;;;;;1.25;1.25;;;;;;;;5030234;28;45502;-61
2022/04/13 00:05:21;;;;;;;;;2.00;2.00;;;;;;;;5029190;28;45698;-61
2022/04/13 00:07:46;;;;;;;;;2.50;2.00;;;;;;;;5030673;28;45610;-60
2022/04/13 00:10:12;;;;;;;;;2.50;2.50;;;;;;;;5032691;28;45628;-61
2022/04/13 00:12:37;;;;;;;;;2.50;2.50;;;;;;;;5025528;28;47953;-60
2022/04/13 00:15:03;;;;;;;;;3.00;1.75;;;;;;;;5022972;28;45779;-61
2022/04/13 00:17:29;;;;;;;;;3.00;2.00;;;;;;;;5030525;28;45416;-59
2022/04/13 00:19:55;;;;;;;;;2.75;2.75;;;;;;;;5030468;28;45500;-60
2022/04/13 00:22:20;;;;;;;;;2.75;2.50;;;;;;;;5032966;28;46481;-60
2022/04/13 00:24:45;;;;;;;;;1.50;1.50;;;;;;;;5033582;28;45277;-61
2022/04/13 00:27:10;;;;;;;;;1.00;1.00;;;;;;;;5033600;28;45365;-61
2022/04/13 00:29:35;;;;;;;;;3.00;3.00;;;;;;;;5032393;28;45621;-61
2022/04/13 00:32:03;;;;;;;;;4.00;3.00;;;;;;;;5030810;28;46440;-60
2022/04/13 00:34:29;;;;;;;;;2.00;2.00;;;;;;;;5034938;28;45427;-61
2022/04/13 00:36:57;;;;;;;;;1.00;1.00;;;;;;;;5034388;28;45420;-61
2022/04/13 00:39:22;;;;;;;;;2.50;2.50;;;;;;;;5033573;28;45561;-61
2022/04/13 00:41:48;;;;;;;;;2.00;1.25;;;;;;;;5033195;28;46153;-61
2022/04/13 00:44:13;;;;;;;;;1.75;1.75;;;;;;;;5033453;28;47879;-60
2022/04/13 00:46:38;;;;;;;;;3.00;1.00;;;;;;;;5033593;28;45857;-61
2022/04/13 00:49:04;;;;;;;;;2.00;2.00;;;;;;;;5035767;28;45595;-61
2022/04/13 00:51:30;;;;;;;;;1.25;1.25;;;;;;;;5033257;28;46910;-60
2022/04/13 00:53:56;;;;;;;;;2.00;2.00;;;;;;;;5028530;28;45904;-61
2022/04/13 00:56:24;;;;;;;;;3.75;3.75;;;;;;;;5020522;28;45436;-59
2022/04/13 00:58:53;;;;;;;;;4.00;4.00;;;;;;;;5033129;28;45438;-58
2022/04/13 01:01:20;;;;;;;;;3.00;3.00;;;;;;;;5046264;28;47175;-59
2022/04/13 01:03:46;;;;;;;;;4.00;4.00;;;;;;;;5027187;28;45667;-60
2022/04/13 01:06:12;;;;;;;;;2.00;2.00;;;;;;;;5021500;28;45409;-60
2022/04/13 01:08:38;;;;;;;;;2.00;2.00;;;;;;;;5030834;28;45528;-58
2022/04/13 01:11:03;;;;;;;;;4.00;3.00;;;;;;;;5021820;28;46405;-61
2022/04/13 01:13:29;;;;;;;;;3.50;3.50;;;;;;;;5007920;28;45620;-61
2022/04/13 01:15:54;;;;;;;;;2.75;2.00;;;;;;;;5027521;28;45708;-61
2022/04/13 01:18:20;;;;;;;;;7.00;4.00;;;;;;;;5031518;28;45607;-61
2022/04/13 01:20:49;;;;;;;;;2.00;2.00;;;;;;;;5033220;28;48472;-61
2022/04/13 01:23:14;;;;;;;;;1.25;1.25;;;;;;;;5016346;28;45639;-61
2022/04/13 01:25:46;;;;;;;;;3.75;2.00;;;;;;;;5020354;28;45423;-62
2022/04/13 01:28:11;;;;;;;;;3.00;3.00;;;;;;;;5019230;28;45702;-61
2022/04/13 01:30:37;;;;;;;;;6.00;3.00;;;;;;;;5030887;28;46487;-61
2022/04/13 01:33:03;;;;;;;;;2.00;2.00;;;;;;;;5015921;28;45473;-61
2022/04/13 01:35:28;;;;;;;;;2.25;2.00;;;;;;;;5029980;28;45678;-61
2022/04/13 01:37:54;;;;;;;;;3.00;3.00;;;;;;;;5022780;28;45638;-59
2022/04/13 01:40:19;;;;;;;;;2.00;2.00;;;;;;;;5020384;28;47336;-62
2022/04/13 01:42:47;;;;;;;;;3.00;3.00;;;;;;;;5026993;28;45559;-61
2022/04/13 01:45:19;;;;;;;;;1.75;1.75;;;;;;;;5018536;28;48046;-61
2022/04/13 01:47:44;;;;;;;;;5.50;4.50;;;;;;;;5017851;28;45737;-60
2022/04/13 01:50:09;;;;;;;;;5.00;4.00;;;;;;;;5025931;28;45810;-61
2022/04/13 01:52:35;;;;;;;;;3.00;3.00;;;;;;;;5029627;28;45677;-60
2022/04/13 01:55:00;;;;;;;;;3.25;3.25;;;;;;;;5018879;28;45772;-60
2022/04/13 01:57:25;;;;;;;;;3.00;3.00;;;;;;;;5020651;28;45638;-61
2022/04/13 01:59:50;;;;;;;;;2.50;2.50;;;;;;;;5019894;28;48675;-61
2022/04/13 02:02:16;;;;;;;;;3.00;3.00;;;;;;;;5030611;28;45511;-60
2022/04/13 02:04:41;;;;;;;;;2.00;2.00;;;;;;;;5015021;28;45427;-60
2022/04/13 02:07:06;;;;;;;;;6.25;5.00;;;;;;;;5028028;28;45477;-61
2022/04/13 02:09:32;;;;;;;;;5.75;3.50;;;;;;;;5017359;28;46089;-60
2022/04/13 02:11:57;;;;;;;;;3.00;3.00;;;;;;;;5023508;28;45601;-60
2022/04/13 02:14:22;;;;;;;;;3.00;3.00;;;;;;;;5017439;28;45470;-60
2022/04/13 02:16:48;;;;;;;;;3.75;2.75;;;;;;;;5023037;28;45464;-61
2022/04/13 02:19:13;;;;;;;;;4.00;2.00;;;;;;;;5027493;28;46209;-61
2022/04/13 02:21:39;;;;;;;;;4.75;3.50;;;;;;;;5016249;28;45355;-61
2022/04/13 02:24:04;;;;;;;;;2.00;2.00;;;;;;;;5029157;28;45569;-61
2022/04/13 02:26:30;;;;;;;;;3.75;2.50;;;;;;;;5038942;28;45756;-61
2022/04/13 02:28:55;;;;;;;;;3.75;3.00;;;;;;;;5018112;28;45642;-60
2022/04/13 02:31:21;;;;;;;;;2.00;2.00;;;;;;;;5019354;28;45634;-61
2022/04/13 02:33:47;;;;;;;;;2.75;2.75;;;;;;;;5029827;28;45549;-60
2022/04/13 02:36:12;;;;;;;;;3.50;2.50;;;;;;;;5015643;28;45480;-60
2022/04/13 02:38:38;;;;;;;;;5.75;3.25;;;;;;;;5029278;28;45665;-60
2022/04/13 02:41:04;;;;;;;;;3.00;3.00;;;;;;;;5020774;28;46002;-60
2022/04/13 02:43:29;;;;;;;;;5.00;3.75;;;;;;;;5017155;28;46142;-60
2022/04/13 02:45:55;;;;;;;;;3.00;2.50;;;;;;;;5014298;28;45417;-60
2022/04/13 02:48:21;;;;;;;;;6.50;3.00;;;;;;;;5016665;28;46481;-60
2022/04/13 02:50:46;;;;;;;;;4.00;4.00;;;;;;;;5019159;28;45687;-60
2022/04/13 02:53:11;;;;;;;;;4.50;4.50;;;;;;;;5015700;28;45570;-59
2022/04/13 02:55:36;;;;;;;;;5.00;5.00;;;;;;;;5030421;28;45408;-60
2022/04/13 02:58:02;;;;;;;;;4.00;4.00;;;;;;;;5024258;28;47630;-60
2022/04/13 03:00:27;;;;;;;;;4.50;3.00;;;;;;;;5024071;28;45390;-60
2022/04/13 03:02:53;;;;;;;;;4.25;3.00;;;;;;;;5026307;28;45511;-60
2022/04/13 03:05:18;;;;;;;;;4.25;4.25;;;;;;;;5015554;28;47368;-60
2022/04/13 03:07:43;;;;;;;;;5.00;3.75;;;;;;;;5029955;28;45779;-60
2022/04/13 03:10:09;;;;;;;;;4.75;4.00;;;;;;;;5017747;28;45413;-59
2022/04/13 03:12:34;;;;;;;;;7.25;4.50;;;;;;;;5024639;28;46287;-60
2022/04/13 03:15:01;;;;;;;;;4.50;4.50;;;;;;;;5024781;28;45330;-59
2022/04/13 03:17:27;;;;;;;;;4.50;4.50;;;;;;;;5015444;28;45919;-60
2022/04/13 03:19:52;;;;;;;;;3.50;3.50;;;;;;;;5029657;28;45401;-59
2022/04/13 03:22:17;;;;;;;;;2.75;2.75;;;;;;;;5033047;28;45485;-60
2022/04/13 03:24:42;;;;;;;;;4.00;4.00;;;;;;;;5035445;28;45615;-60
2022/04/13 03:27:07;;;;;;;;;5.75;5.75;;;;;;;;5030690;28;45580;-60
2022/04/13 03:29:33;;;;;;;;;6.75;4.25;;;;;;;;5030569;28;45503;-60
2022/04/13 03:31:58;;;;;;;;;4.50;4.50;;;;;;;;5031143;28;45422;-60
2022/04/13 03:34:24;;;;;;;;;4.00;4.00;;;;;;;;5033237;28;45641;-59
2022/04/13 03:36:52;;;;;;;;;6.25;5.25;;;;;;;;5031080;28;45951;-60
2022/04/13 03:39:17;;;;;;;;;4.25;4.25;;;;;;;;5025961;28;45475;-60
2022/04/13 03:41:42;;;;;;;;;3.25;3.25;;;;;;;;5020608;28;45562;-61
2022/04/13 03:44:08;;;;;;;;;6.00;4.50;;;;;;;;5030932;28;45456;-60
2022/04/13 03:46:33;;;;;;;;;8.50;6.00;;;;;;;;5028346;28;47588;-60
2022/04/13 03:48:58;;;;;;;;;5.25;5.25;;;;;;;;5030548;28;45421;-60
2022/04/13 03:51:24;;;;;;;;;4.50;3.50;;;;;;;;5030552;28;45518;-60
2022/04/13 03:53:49;;;;;;;;;7.00;6.00;;;;;;;;5028655;28;45563;-60
2022/04/13 03:56:14;;;;;;;;;4.75;4.75;;;;;;;;5030878;28;46557;-60
2022/04/13 03:58:42;;;;;;;;;5.00;5.00;;;;;;;;5034026;28;45474;-60
2022/04/13 04:01:08;;;;;;;;;6.25;5.00;;;;;;;;5036333;28;45824;-61
2022/04/13 04:03:34;;;;;;;;;5.00;5.00;;;;;;;;5029550;28;45528;-60
2022/04/13 04:05:59;;;;;;;;;6.00;5.75;;;;;;;;5026045;28;45536;-60
2022/04/13 04:08:26;;;;;;;;;6.50;6.00;;;;;;;;5033873;28;45479;-61
2022/04/13 04:10:51;;;;;;;;;7.75;5.00;;;;;;;;5032814;28;45463;-61
2022/04/13 04:13:16;;;;;;;;;9.75;7.75;;;;;;;;5035974;28;45413;-61
2022/04/13 04:15:41;;;;;;;;;5.00;5.00;;;;;;;;5033542;28;46526;-61
2022/04/13 04:18:07;;;;;;;;;5.50;5.50;;;;;;;;5033900;28;45333;-60
2022/04/13 04:20:33;;;;;;;;;5.75;5.50;;;;;;;;5031297;28;47568;-61
2022/04/13 04:22:58;;;;;;;;;6.50;6.50;;;;;;;;5031093;28;45433;-60
2022/04/13 04:25:23;;;;;;;;;9.50;8.25;;;;;;;;5034443;28;45644;-62
2022/04/13 04:27:48;;;;;;;;;6.00;6.00;;;;;;;;5030633;28;45871;-61
2022/04/13 04:30:14;;;;;;;;;6.75;6.75;;;;;;;;5033807;28;45615;-60
2022/04/13 04:32:39;;;;;;;;;2.75;2.75;;;;;;;;5033788;28;45592;-60
2022/04/13 04:35:05;;;;;;;;;9.75;7.00;;;;;;;;5016981;28;46373;-60
2022/04/13 04:37:31;;;;;;;;;6.00;6.00;;;;;;;;5034768;28;45633;-60
2022/04/13 04:39:56;;;;;;;;;8.50;7.75;;;;;;;;5033315;28;45849;-60
2022/04/13 04:42:21;;;;;;;;;7.50;7.50;;;;;;;;5033458;28;45404;-61
2022/04/13 04:44:46;;;;;;;;;9.50;8.75;;;;;;;;5031581;28;47859;-60
2022/04/13 04:47:11;;;;;;;;;8.25;6.50;;;;;;;;5016880;28;45409;-61
2022/04/13 04:49:37;;;;;;;;;7.75;7.75;;;;;;;;5031297;28;45558;-61
2022/04/13 04:52:02;;;;;;;;;6.25;6.25;;;;;;;;5030749;28;45618;-61
2022/04/13 04:54:27;;;;;;;;;8.50;7.50;;;;;;;;5029275;28;46337;-61
2022/04/13 04:56:52;;;;;;;;;6.75;6.75;;;;;;;;5028711;28;45505;-60
2022/04/13 04:59:18;;;;;;;;;10.25;9.00;;;;;;;;5021247;28;45750;-60
2022/04/13 05:01:43;;;;;;;;;10.25;7.00;;;;;;;;5033271;28;45638;-60
2022/04/13 05:04:08;;;;;;;;;10.75;9.25;;;;;;;;5034933;28;45638;-62
2022/04/13 05:06:34;;;;;;;;;9.25;8.75;;;;;;;;5032046;28;45694;-62
2022/04/13 05:08:59;;;;;;;;;9.75;9.75;;;;;;;;5027682;28;45558;-62
2022/04/13 05:11:24;;;;;;;;;10.00;8.75;;;;;;;;5005290;28;45666;-62
2022/04/13 05:13:50;;;;;;;;;9.50;8.25;;;;;;;;5031103;28;46523;-62
2022/04/13 05:16:16;;;;;;;;;11.50;8.00;;;;;;;;5030295;28;45727;-62
2022/04/13 05:18:41;;;;;;;;;11.00;9.50;;;;;;;;5032272;28;45439;-62
2022/04/13 05:21:07;;;;;;;;;10.25;8.25;;;;;;;;5030717;28;45964;-63
2022/04/13 05:23:32;;;;;;;;;9.00;8.25;;;;;;;;5023776;28;46326;-63
2022/04/13 05:25:58;;;;;;;;;10.00;8.25;;;;;;;;5019529;28;45515;-64
2022/04/13 05:28:23;;;;;;;;;11.50;10.25;;;;;;;;5023277;28;45505;-63
2022/04/13 05:30:48;;;;;;;;;10.25;9.00;;;;;;;;5024943;28;45460;-62
2022/04/13 05:33:13;;;;;;;;;12.00;11.00;;;;;;;;5016437;28;46063;-63
2022/04/13 05:35:39;;;;;;;;;10.25;8.75;;;;;;;;5024024;28;45388;-63
2022/04/13 05:38:05;;;;;;;;;10.00;9.50;;;;;;;;5025154;28;45493;-63
2022/04/13 05:40:30;;;;;;;;;16.00;10.50;;;;;;;;5029460;28;45534;-63
2022/04/13 05:42:55;;;;;;;;;9.75;9.75;;;;;;;;5032421;28;46415;-64
2022/04/13 05:45:21;;;;;;;;;11.50;10.50;;;;;;;;5015625;28;45485;-63
2022/04/13 05:47:46;;;;;;;;;9.25;9.25;;;;;;;;5020490;28;45567;-63
2022/04/13 05:50:12;;;;;;;;;8.25;8.25;;;;;;;;5012745;28;45473;-63
2022/04/13 05:52:39;;;;;;;;;9.50;7.75;;;;;;;;5028614;28;47539;-76
2022/04/13 05:55:04;;;;;;;;;11.00;8.75;;;;;;;;5033537;28;45849;-65
2022/04/13 05:57:30;;;;;;;;;9.50;7.75;;;;;;;;5020475;28;45521;-64
2022/04/13 05:59:55;;;;;;;;;10.75;9.25;;;;;;;;5022919;28;45535;-63
2022/04/13 06:02:21;;;;;;;;;9.75;8.25;;;;;;;;5027905;28;45863;-63
2022/04/13 06:04:46;;;;;;;;;9.50;9.50;;;;;;;;5029311;28;45927;-64
2022/04/13 06:07:11;;;;;;;;;10.25;10.25;;;;;;;;5018853;28;45619;-63
2022/04/13 06:09:37;;;;;;;;;9.75;9.75;;;;;;;;5026267;28;45496;-64
2022/04/13 06:12:02;;;;;;;;;9.00;8.75;;;;;;;;5024815;28;46534;-63
2022/04/13 06:14:27;;;;;;;;;12.25;9.50;;;;;;;;5016653;28;45674;-64
2022/04/13 06:16:52;;;;;;;;;13.25;10.00;;;;;;;;5029611;28;48123;-63
2022/04/13 06:19:18;;;;;;;;;10.75;8.75;;;;;;;;5018430;28;45555;-64
2022/04/13 06:21:43;;;;;;;;;9.00;9.00;;;;;;;;5019417;28;45818;-64
2022/04/13 06:24:08;;;;;;;;;14.50;11.00;;;;;;;;5026448;28;45278;-64
2022/04/13 06:26:33;;;;;;;;;10.25;10.25;;;;;;;;5031851;28;45457;-64
2022/04/13 06:28:59;;;;;;;;;13.00;12.50;;;;;;;;5030540;28;45630;-63
2022/04/13 06:31:24;;;;;;;;;12.25;10.75;;;;;;;;5033298;28;46707;-63
2022/04/13 06:33:49;;;;;;;;;11.50;9.75;;;;;;;;5047525;28;46066;-64
2022/04/13 06:36:15;;;;;;;;;15.25;14.75;;;;;;;;5026853;28;45737;-64
2022/04/13 06:38:40;;;;;;;;;11.25;11.25;;;;;;;;5021001;28;45439;-64
2022/04/13 06:41:06;;;;;;;;;13.25;13.25;;;;;;;;5031386;28;47317;-64
2022/04/13 06:43:31;;;;;;;;;12.00;12.00;;;;;;;;5032634;28;45403;-64
2022/04/13 06:45:57;;;;;;;;;13.25;12.25;;;;;;;;5032801;28;45395;-64
2022/04/13 06:48:22;;;;;;;;;9.25;8.50;;;;;;;;5030975;28;45468;-64
2022/04/13 06:50:47;;;;;;;;;13.25;13.25;;;;;;;;5029972;28;47639;-64
2022/04/13 06:53:14;;;;;;;;;12.75;12.25;;;;;;;;5028938;28;45663;-64
2022/04/13 06:55:40;;;;;;;;;14.00;13.00;;;;;;;;5031401;28;45593;-64
2022/04/13 06:58:06;;;;;;;;;13.25;13.25;;;;;;;;5033216;28;45696;-64
2022/04/13 07:00:31;;;;;;;;;15.25;14.00;;;;;;;;5026479;28;48539;-65
2022/04/13 07:02:57;;;;;;;;;12.50;12.50;;;;;;;;5022797;28;45632;-64
2022/04/13 07:05:23;;;;;;;;;14.50;11.50;;;;;;;;5031455;28;45567;-64
2022/04/13 07:07:48;;;;;;;;;9.75;9.75;;;;;;;;5029151;28;45708;-63
2022/04/13 07:10:14;;;;;;;;;13.00;11.00;;;;;;;;5032482;28;45519;-63
2022/04/13 07:12:39;;;;;;;;;11.50;11.50;;;;;;;;5030983;28;45773;-63
2022/04/13 07:15:05;;;;;;;;;12.25;11.25;;;;;;;;5031358;28;45878;-64
2022/04/13 07:17:30;;;;;;;;;11.25;11.25;;;;;;;;5031067;28;45640;-64
2022/04/13 07:19:55;;;;;;;;;13.25;12.00;;;;;;;;5031614;28;46472;-64
2022/04/13 07:22:21;;;;;;;;;15.00;13.25;;;;;;;;5028519;28;45564;-64
2022/04/13 07:24:46;;;;;;;;;15.75;15.25;;;;;;;;5029123;28;45771;-64
2022/04/13 07:27:11;;;;;;;;;17.00;14.50;;;;;;;;5030666;28;45487;-64
2022/04/13 07:29:36;;;;;;;;;13.00;13.00;;;;;;;;5030522;28;46543;-64
2022/04/13 07:32:01;;;;;;;;;15.50;13.00;;;;;;;;5029165;28;45496;-64
2022/04/13 07:34:27;;;;;;;;;16.75;15.00;;;;;;;;5011860;28;45469;-64
2022/04/13 07:36:52;;;;;;;;;15.00;15.00;;;;;;;;5047085;28;45521;-64
2022/04/13 07:39:17;;;;;;;;;15.75;15.75;;;;;;;;5030710;28;45412;-64
2022/04/13 07:41:43;;;;;;;;;16.00;15.00;;;;;;;;5030167;28;45430;-64
2022/04/13 07:44:09;;;;;;;;;17.25;15.25;;;;;;;;5030945;28;45677;-64
2022/04/13 07:46:34;;;;;;;;;20.75;17.75;;;;;;;;5028185;28;45684;-65
2022/04/13 07:48:59;;;;;;;;;18.75;17.75;;;;;;;;5030391;28;45819;-64
2022/04/13 07:51:24;;;;;;;;;19.50;18.00;;;;;;;;5030608;28;45361;-64
2022/04/13 07:53:50;;;;;;;;;21.25;17.50;;;;;;;;5030557;28;45512;-64
2022/04/13 07:56:15;;;;;;;;;17.50;15.00;;;;;;;;5029074;28;45462;-64
2022/04/13 07:58:40;;;;;;;;;18.75;18.75;;;;;;;;5028771;28;47568;-64
2022/04/13 08:01:05;;;;;;;;;20.50;19.50;;;;;;;;5030618;28;45498;-64
2022/04/13 08:03:31;;;;;;;;;18.00;15.75;;;;;;;;5030699;28;45409;-64
2022/04/13 08:05:56;;;;;;;;;20.00;18.00;;;;;;;;5030273;28;45623;-63
2022/04/13 08:08:21;;;;;;;;;19.50;19.50;;;;;;;;5030444;28;46525;-64
2022/04/13 08:10:46;;;;;;;;;16.25;15.75;;;;;;;;5029950;28;45408;-63
2022/04/13 08:13:12;;;;;;;;;16.50;16.25;;;;;;;;5031568;28;45537;-66
2022/04/13 08:15:37;;;;;;;;;18.00;17.50;;;;;;;;5030451;28;45603;-64
2022/04/13 08:18:03;;;;;;;;;18.25;18.25;;;;;;;;5030135;28;45683;-64
2022/04/13 08:20:28;;;;;;;;;21.25;19.50;;;;;;;;5029210;28;45861;-65
2022/04/13 08:22:53;;;;;;;;;18.50;18.25;;;;;;;;5030539;28;45806;-64
2022/04/13 08:25:18;;;;;;;;;15.00;13.50;;;;;;;;5027430;28;45349;-64
2022/04/13 08:27:44;;;;;;;;;16.50;16.50;;;;;;;;5026392;28;47352;-63
2022/04/13 08:30:09;;;;;;;;;17.50;17.25;;;;;;;;5025471;28;45737;-64
2022/04/13 08:32:36;;;;;;;;;15.00;14.25;;;;;;;;5018803;28;45502;-63
2022/04/13 08:35:05;;;;;;;;;15.25;14.25;;;;;;;;5030517;28;45657;-64
2022/04/13 08:37:30;;;;;;;;;18.50;16.00;;;;;;;;5031461;28;46601;-63
2022/04/13 08:39:56;;;;;;;;;18.75;17.50;;;;;;;;5026291;28;46184;-63
2022/04/13 08:42:30;;;;;;;;;18.50;17.50;;;;;;;;5020393;28;45658;-63
2022/04/13 08:45:00;;;;;;;;;16.00;14.75;;;;;;;;5025243;28;45464;-63
2022/04/13 08:47:25;;;;;;;;;13.50;12.75;;;;;;;;5032015;28;48866;-63
2022/04/13 08:49:52;;;;;;;;;18.00;16.75;;;;;;;;5032311;28;45397;-63
2022/04/13 08:52:24;;;;;;;;;17.75;15.75;;;;;;;;5035168;28;45412;-64
2022/04/13 08:54:53;;;;;;;;;21.25;19.75;;;;;;;;5027612;28;45367;-63
2022/04/13 08:57:20;;;;;;;;;21.75;20.25;;;;;;;;5027735;28;45825;-63
2022/04/13 09:00:04;;;;;;;;;21.00;21.00;;;;;;;;5033072;28;45483;-63
2022/04/13 09:02:49;;;;;;;;;21.00;18.75;;;;;;;;5033182;28;45786;-63
2022/04/13 09:05:16;;;;;;;;;19.50;18.50;;;;;;;;5011954;28;45903;-63
2022/04/13 09:07:42;;;;;;;;;20.00;18.50;;;;;;;;5011893;28;45907;-63
2022/04/13 09:10:11;;;;;;;;;18.00;17.75;;;;;;;;5012498;28;45510;-63
2022/04/13 09:12:36;;;;;;;;;19.25;18.00;;;;;;;;4995424;28;45471;-64
2022/04/13 09:15:02;;;;;;;;;18.75;18.75;;;;;;;;4995212;28;45688;-64
2022/04/13 09:17:30;;;;;;;;;18.75;18.75;;;;;;;;4995135;28;48638;-64
2022/04/13 09:19:56;;;;;;;;;21.00;18.50;;;;;;;;5011986;28;45720;-65
2022/04/13 09:22:22;;;;;;;;;18.50;16.75;;;;;;;;5012577;28;45366;-63
2022/04/13 09:24:47;;;;;;;;;10.00;8.50;;;;;;;;5011772;28;45470;-63
2022/04/13 09:27:13;;;;;;;;;19.50;17.75;;;;;;;;5011281;28;46181;-63
2022/04/13 09:29:39;;;;;;;;;20.75;19.50;;;;;;;;5011006;28;45444;-63
2022/04/13 09:32:04;;;;;;;;;23.00;21.25;;;;;;;;5011798;28;45565;-63
2022/04/13 09:34:29;;;;;;;;;27.00;23.75;;;;;;;;5009686;28;45619;-64
2022/04/13 09:36:55;;;;;;;;;24.25;21.75;;;;;;;;5015507;28;45792;-64
2022/04/13 09:39:21;;;;;;;;;18.00;17.75;;;;;;;;5008360;28;46354;-64
2022/04/13 09:41:46;;;;;;;;;14.50;12.50;;;;;;;;5023689;28;45990;-63
2022/04/13 09:44:15;;;;;;;;;17.00;16.75;;;;;;;;5031835;28;45997;-63
2022/04/13 09:46:41;;;;;;;;;14.00;12.00;;;;;;;;5031710;28;45541;-64
2022/04/13 09:49:16;;;;;;;;;9.25;8.25;;;;;;;;5047783;28;45607;-64
2022/04/13 09:51:43;;;;;;;;;11.50;9.00;;;;;;;;5026237;28;45429;-62
2022/04/13 09:54:11;;;;;;;;;11.75;9.75;;;;;;;;5035874;28;45726;-63
2022/04/13 09:56:40;;;;;;;;;10.50;9.75;;;;;;;;5027304;28;46624;-63
2022/04/13 09:59:06;;;;;;;;;12.50;12.50;;;;;;;;5038029;28;45464;-63
2022/04/13 10:01:32;;;;;;;;;13.50;12.50;;;;;;;;5028505;28;45453;-64
2022/04/13 10:03:57;;;;;;;;;13.75;11.50;;;;;;;;5032596;28;45803;-63
2022/04/13 10:06:28;;;;;;;;;15.00;15.00;;;;;;;;5033750;28;46042;-63
2022/04/13 10:09:00;;;;;;;;;12.75;12.75;;;;;;;;5026763;28;45756;-63
2022/04/13 10:11:25;;;;;;;;;15.75;14.50;;;;;;;;5037463;28;45570;-63
2022/04/13 10:13:51;;;;;;;;;11.75;11.75;;;;;;;;5032356;28;45364;-63
2022/04/13 10:16:16;;;;;;;;;16.75;14.00;;;;;;;;5036214;28;45549;-63
2022/04/13 10:19:00;;;;;;;;;12.00;10.50;;;;;;;;5031571;28;45367;-63
2022/04/13 10:21:40;;;;;;;;;15.00;13.75;;;;;;;;5027765;28;45583;-62
2022/04/13 10:24:06;;;;;;;;;12.00;11.00;;;;;;;;5022847;28;45678;-62
2022/04/13 10:26:31;;;;;;;;;12.75;12.75;;;;;;;;5016161;28;45788;-63
2022/04/13 10:28:57;;;;;;;;;11.75;11.75;;;;;;;;5037852;28;45575;-64
2022/04/13 10:31:22;;;;;;;;;11.00;10.75;;;;;;;;5029030;28;45478;-61
2022/04/13 10:33:48;;;;;;;;;12.00;12.00;;;;;;;;5029760;28;45709;-62
2022/04/13 10:36:17;;;;;;;;;12.00;11.00;;;;;;;;5029761;28;46316;-62
2022/04/13 10:38:43;;;;;;;;;15.50;15.50;;;;;;;;5017673;28;45425;-62
2022/04/13 10:41:13;;;;;;;;;12.50;12.50;;;;;;;;5035632;28;45575;-62
2022/04/13 10:43:39;;;;;;;;;12.00;12.00;;;;;;;;5029833;28;45647;-62
2022/04/13 10:46:05;;;;;;;;;10.75;10.75;;;;;;;;5033902;28;47424;-62
2022/04/13 10:48:32;;;;;;;;;15.00;14.50;;;;;;;;5032137;28;45947;-62
2022/04/13 10:51:02;;;;;;;;;9.00;9.00;;;;;;;;5024843;28;45488;-62
2022/04/13 10:53:35;;;;;;;;;8.50;6.50;;;;;;;;5033899;28;45858;-62
2022/04/13 10:56:02;;;;;;;;;6.00;3.25;;;;;;;;5030272;28;45578;-62
2022/04/13 10:58:45;;;;;;;;;6.75;5.50;;;;;;;;5037264;28;45396;-62
2022/04/13 11:01:15;;;;;;;;;5.00;3.75;;;;;;;;5031883;28;45471;-61
2022/04/13 11:03:40;;;;;;;;;4.75;4.75;;;;;;;;5028745;28;45653;-62
2022/04/13 11:06:07;;;;;;;;;6.25;5.25;;;;;;;;5029759;28;47455;-61
2022/04/13 11:08:36;;;;;;;;;4.25;3.50;;;;;;;;5016233;28;45844;-62
2022/04/13 11:11:02;;;;;;;;;3.50;3.50;;;;;;;;5036690;28;45622;-62
2022/04/13 11:13:31;;;;;;;;;6.00;6.00;;;;;;;;5024937;28;45654;-62
2022/04/13 11:16:12;;;;;;;;;5.50;5.50;;;;;;;;5021667;28;46808;-62
2022/04/13 11:18:37;;;;;;;;;5.75;5.75;;;;;;;;5026226;28;45417;-62
2022/04/13 11:21:06;;;;;;;;;4.75;4.75;;;;;;;;5019688;28;45853;-62
2022/04/13 11:23:43;;;;;;;;;4.00;4.00;;;;;;;;5033019;28;45621;-62
2022/04/13 11:26:08;;;;;;;;;2.75;2.75;;;;;;;;5028753;28;47415;-62
2022/04/13 11:28:35;;;;;;;;;5.00;4.00;;;;;;;;5036399;28;45637;-62
2022/04/13 11:31:00;;;;;;;;;3.25;3.25;;;;;;;;5028107;28;45404;-62
2022/04/13 11:33:42;;;;;;;;;3.25;3.25;;;;;;;;5023027;28;45730;-62
2022/04/13 11:36:07;;;;;;;;;5.00;5.00;;;;;;;;5025864;28;46691;-61
2022/04/13 11:38:36;;;;;;;;;2.75;2.75;;;;;;;;5026304;28;45328;-63
2022/04/13 11:41:06;;;;;;;;;2.50;2.50;;;;;;;;5030699;28;45583;-62
2022/04/13 11:43:32;;;;;;;;;5.75;5.50;;;;;;;;5029632;28;45714;-62
2022/04/13 11:45:59;;;;;;;;;4.50;4.50;;;;;;;;5026147;28;46485;-63
2022/04/13 11:48:33;;;;;;;;;4.75;4.75;;;;;;;;5026010;28;45534;-62
2022/04/13 11:51:17;;;;;;;;;5.25;5.25;;;;;;;;5026212;28;45444;-62
2022/04/13 11:53:52;;;;;;;;;7.50;7.50;;;;;;;;5025082;28;45746;-62
2022/04/13 11:56:29;;;;;;;;;7.00;6.25;;;;;;;;5027516;28;46533;-62
2022/04/13 11:58:54;;;;;;;;;5.50;5.00;;;;;;;;5014995;28;45482;-62
2022/04/13 12:01:22;;;;;;;;;6.00;5.00;;;;;;;;5016153;28;45602;-62
2022/04/13 12:03:47;;;;;;;;;4.50;2.50;;;;;;;;5025943;28;45646;-62
2022/04/13 12:06:15;;;;;;;;;6.50;6.50;;;;;;;;5021496;28;48126;-62
2022/04/13 12:08:41;;;;;;;;;3.75;3.75;;;;;;;;5017518;28;45526;-62
2022/04/13 12:11:06;;;;;;;;;4.75;3.75;;;;;;;;5015161;28;45457;-62
2022/04/13 12:13:44;;;;;;;;;4.00;4.00;;;;;;;;5031733;28;45465;-63
2022/04/13 12:16:12;;;;;;;;;4.50;4.50;;;;;;;;5029368;28;49029;-62
2022/04/13 12:18:38;;;;;;;;;5.00;5.00;;;;;;;;5030639;28;45369;-62
2022/04/13 12:21:07;;;;;;;;;7.25;5.00;;;;;;;;5033746;28;45426;-61
2022/04/13 12:23:35;;;;;;;;;5.00;5.00;;;;;;;;5033799;28;45407;-62
2022/04/13 12:26:00;;;;;;;;;7.25;4.75;;;;;;;;5033534;28;45789;-61
2022/04/13 12:28:25;;;;;;;;;3.75;2.75;;;;;;;;5035208;28;45511;-62
2022/04/13 12:30:54;;;;;;;;;3.25;3.25;;;;;;;;5034188;28;45393;-61
2022/04/13 12:33:23;;;;;;;;;4.00;4.00;;;;;;;;5033524;28;45375;-61
2022/04/13 12:36:00;;;;;;;;;5.00;5.00;;;;;;;;5033468;28;46504;-61
2022/04/13 12:38:30;;;;;;;;;5.00;5.00;;;;;;;;5033599;28;45714;-62
2022/04/13 12:41:06;;;;;;;;;2.75;2.75;;;;;;;;5033936;28;45923;-61
2022/04/13 12:43:31;;;;;;;;;4.00;3.75;;;;;;;;5030536;28;45797;-62
2022/04/13 12:45:57;;;;;;;;;5.50;4.50;;;;;;;;5034039;28;45926;-61
2022/04/13 12:48:28;;;;;;;;;6.00;4.00;;;;;;;;5030959;28;45565;-62
2022/04/13 12:50:58;;;;;;;;;3.25;3.25;;;;;;;;5032133;28;45630;-62
2022/04/13 12:53:23;;;;;;;;;3.00;3.00;;;;;;;;5026905;28;45524;-62
2022/04/13 12:55:57;;;;;;;;;2.50;2.50;;;;;;;;5031289;28;45783;-62
2022/04/13 12:58:23;;;;;;;;;2.75;2.75;;;;;;;;5031603;28;45717;-62
2022/04/13 13:00:52;;;;;;;;;3.00;3.00;;;;;;;;5033451;28;45458;-63
2022/04/13 13:03:18;;;;;;;;;3.75;3.75;;;;;;;;5029546;28;45502;-61
2022/04/13 13:05:44;;;;;;;;;3.50;3.50;;;;;;;;5023003;28;45940;-61
2022/04/13 13:08:09;;;;;;;;;4.00;4.00;;;;;;;;5032798;28;45460;-62
2022/04/13 13:10:34;;;;;;;;;4.75;4.75;;;;;;;;5031266;28;45382;-61
2022/04/13 13:13:13;;;;;;;;;5.00;5.00;;;;;;;;5033219;28;45421;-61
2022/04/13 13:15:39;;;;;;;;;3.50;3.50;;;;;;;;5032648;28;45507;-61
2022/04/13 13:18:07;;;;;;;;;4.25;3.50;;;;;;;;5028318;28;46297;-61
2022/04/13 13:20:33;;;;;;;;;2.25;1.50;;;;;;;;5019747;28;45446;-61
2022/04/13 13:22:58;;;;;;;;;5.25;4.25;;;;;;;;5030529;28;45559;-61
2022/04/13 13:25:23;;;;;;;;;3.25;3.25;;;;;;;;5034464;28;46259;-62
2022/04/13 13:27:50;;;;;;;;;2.50;2.50;;;;;;;;5028111;28;45552;-62
2022/04/13 13:30:17;;;;;;;;;1.50;1.00;;;;;;;;5024650;28;45527;-62
2022/04/13 13:32:48;;;;;;;;;2.75;2.75;;;;;;;;5032561;28;45575;-62
2022/04/13 13:35:18;;;;;;;;;2.75;2.75;;;;;;;;5032573;28;46407;-62
2022/04/13 13:37:47;;;;;;;;;4.25;3.50;;;;;;;;5032744;28;45647;-63
2022/04/13 13:40:39;;;;;;;;;5.00;4.00;;;;;;;;5030521;28;45838;-63
2022/04/13 13:43:06;;;;;;;;;2.75;2.75;;;;;;;;5034963;28;45618;-62
2022/04/13 13:45:39;;;;;;;;;2.50;2.50;;;;;;;;5032529;28;46734;-62
2022/04/13 13:48:06;;;;;;;;;3.00;3.00;;;;;;;;5027869;28;46631;-62
2022/04/13 13:50:32;;;;;;;;;2.00;2.00;;;;;;;;5020529;28;45534;-62
2022/04/13 13:52:58;;;;;;;;;3.25;3.25;;;;;;;;5031419;28;45582;-62
2022/04/13 13:55:24;;;;;;;;;3.00;3.00;;;;;;;;5034307;28;46165;-63
2022/04/13 13:57:50;;;;;;;;;3.50;3.50;;;;;;;;5027911;28;45915;-64
2022/04/13 14:00:15;;;;;;;;;2.00;2.00;;;;;;;;5027762;28;45378;-62
2022/04/13 14:02:40;;;;;;;;;4.00;4.00;;;;;;;;5031026;28;45742;-62
2022/04/13 14:05:06;;;;;;;;;3.25;3.25;;;;;;;;5032203;28;46050;-63
2022/04/13 14:07:32;;;;;;;;;2.00;2.00;;;;;;;;5033546;28;45448;-62
2022/04/13 14:09:57;;;;;;;;;4.00;1.75;;;;;;;;5032923;28;45475;-62
2022/04/13 14:12:22;;;;;;;;;2.00;2.00;;;;;;;;5032064;28;45560;-62
2022/04/13 14:14:48;;;;;;;;;1.50;1.50;;;;;;;;5032054;28;45722;-62
2022/04/13 14:17:13;;;;;;;;;3.25;3.25;;;;;;;;5032043;28;45494;-62
2022/04/13 14:19:38;;;;;;;;;1.75;1.75;;;;;;;;5032821;28;45585;-62
2022/04/13 14:22:04;;;;;;;;;2.00;2.00;;;;;;;;5033917;28;45709;-61
2022/04/13 14:24:29;;;;;;;;;2.75;2.75;;;;;;;;5027040;28;46487;-62
2022/04/13 14:26:54;;;;;;;;;2.00;2.00;;;;;;;;5022690;28;45609;-61
2022/04/13 14:29:19;;;;;;;;;2.00;2.00;;;;;;;;5031788;28;47023;-62